Air Navigation Services of Czech Republic  
Last data update:  03.10.2022 10:30:37 UTC česká verze
   METEO Page displayed:  03.10.2022 10:31:51 UTC  
vysvětlivky
METAR EDAC 031020Z 30009KT 9999 -RA BKN018 OVC064 13/10 Q1024=
METAR EDDB 031020Z AUTO 30015KT 9999 SCT024 BKN031 14/09 Q1021 TEMPO 31015G25KT=
METAR EDDC 031020Z AUTO 30015KT 260V350 9999 BKN019 BKN041 BKN049 12/09 Q1022 TEMPO 31015G25KT=
METAR EDDE 031020Z AUTO 32014KT 9999 FEW023 SCT042 BKN049 13/08 Q1025 NOSIG=
METAR EDDF 031020Z AUTO 28007KT 240V320 9999 FEW031 15/09 Q1028 NOSIG=
METAR EDDM 031020Z AUTO 26008KT 230V290 9999 SCT016 SCT024 BKN044 12/09 Q1027 NOSIG=
METAR EDDN 031020Z AUTO 29007KT 250V340 9999 SCT017 SCT033 BKN043 13/09 Q1027 NOSIG=
METAR EDDP 031020Z AUTO 30015KT 9999 FEW021 SCT028 14/09 Q1024 NOSIG=
METAR EDQM 031020Z 30009KT 260V340 9999 FEW015 SCT026 BKN033 11/07 Q1025=
METAR EPBY 031000Z 32019KT 9999 FEW023 SCT032TCU 14/09 Q1013=
METAR EPGD 031000Z 33015KT 9999 FEW018 BKN022 13/09 Q1012=
METAR EPKK 031000Z 26017KT 9999 FEW015TCU BKN020 11/09 Q1014=
METAR EPKT 031000Z 29013KT 9999 BKN009 10/09 Q1014=
METAR EPLB 031000Z 29015G25KT 9999 -SHRA FEW009 SCT013CB BKN016 11/11 Q1006=
METAR EPLL 031000Z 28015KT 9999 FEW014 BKN021 12/09 Q1012=
METAR EPMO 031000Z 29016KT 260V320 6000 -SHRA BKN013CB 11/10 Q1007=
METAR EPPO 031000Z 32009KT 9999 -SHRA FEW016CB BKN020 12/10 Q1016=
METAR EPRZ 031000Z 27017KT 9999 BKN017CB 11/09 Q1010=
METAR EPWA 031000Z 29019KT 9999 SCT011 BKN020CB 12/10 Q1007 NOSIG=
METAR EPWR 031000Z 30014KT 9999 FEW012CB SCT014 BKN028 12/10 Q1018=
METAR LHBP 031000Z 30025KT 9999 BKN037 16/07 Q1018 NOSIG=
METAR LHSM 030945Z AUTO 01012KT 9999 ////// 17/09 Q1021 NOSIG=
METAR LKBC NIL
METAR LKCS 031000Z AUTO 30011KT 270V330 9999 -RA SCT034/// OVC041/// 12/06 Q1024=
METAR LKCV 031030Z 29020KT 9999 SCT024 BKN050 13/09 Q1021 NOSIG RMK BLU BLU=
METAR LKKB 031030Z 27011KT 9999 SCT028 BKN044 12/08 Q1022 NOSIG RMK BLU BLU=
METAR LKKU 031000Z 29011KT 250V330 9999 SCT026 BKN042 14/08 Q1019=
METAR LKKV 031030Z 28011KT 240V310 9999 FEW012 BKN020 10/06 Q1024=
METAR LKLN 031030Z AUTO 28007KT 210V330 9999 FEW021 SCT046 BKN052 12/08 Q1025=
METAR LKMT 031030Z 31011KT 9999 -RA SCT021 OVC030 12/09 Q1018 NOSIG=
METAR LKNA 031030Z 30022KT 9999 SCT022 11/08 Q1021 NOSIG RMK BLU BLU=
METAR LKPD 031030Z 29014KT 9999 BKN023 BKN050 12/09 Q1021 NOSIG RMK WHT WHT=
METAR LKPJ 031030Z AUTO 29017KT 9999 FEW034/// OVC055/// 14/07 Q1019=
METAR LKPR 031030Z 29016KT 9999 SCT024 12/08 Q1023 NOSIG=
METAR LKTB 031030Z 29017KT 9999 FEW044 13/07 Q1020 NOSIG=
METAR LKVO 031000Z 30014KT 9999 BKN022 12/09 Q1022=
METAR LOWG 031020Z 04003KT 300V110 CAVOK 17/06 Q1021 BECMG 35014KT=
METAR LOWI 031020Z 14003KT 070V200 9999 FEW020 SCT030 15/09 Q1026 NOSIG=
METAR LOWK 031020Z 10004KT 020V180 9999 FEW040 17/08 Q1021 NOSIG=
METAR LOWL 031020Z AUTO 29018KT 9999 FEW017 BKN050 14/07 Q1025 NOSIG=
METAR LOWS 031020Z 31013KT 9999 FEW012 BKN060 13/09 Q1026 NOSIG=
METAR LOWW 031020Z 32018KT 9999 FEW040 16/06 Q1021 NOSIG=
METAR LOXZ 031020Z 26014KT 9999 FEW055 SCT060 14/04 Q1022 NOSIG=
METAR LZIB 031000Z 30016KT 9999 FEW036TCU SCT045 15/08 Q1020 NOSIG=
METAR LZKZ 031000Z VRB02KT CAVOK 13/09 Q1013 NOSIG=
METAR LZPP 031000Z 29016G27KT 9999 FEW027 BKN044 14/09 Q1019=
METAR LZTT 031000Z 25020KT 9999 -SHRA FEW026 BKN060 12/03 Q1013 NOSIG=
METAR LZZI 031000Z 25009KT 9999 -SHRA FEW025 BKN032 12/09 Q1017=